sensor_id;sensor_type;location;lat;lon;timestamp;temperature;humidity
13713;DHT22;6928;50.546;7.120;2023-02-16T00:01:23;1.83;85.98
13713;DHT22;6928;50.546;7.120;2023-02-16T00:03:52;1.95;86.35
13713;DHT22;6928;50.546;7.120;2023-02-16T00:06:20;1.97;85.53
13713;DHT22;6928;50.546;7.120;2023-02-16T00:08:50;1.80;85.76
13713;DHT22;6928;50.546;7.120;2023-02-16T00:11:30;1.66;85.87
13713;DHT22;6928;50.546;7.120;2023-02-16T00:14:15;1.52;86.62
13713;DHT22;6928;50.546;7.120;2023-02-16T00:16:42;1.78;86.12
13713;DHT22;6928;50.546;7.120;2023-02-16T00:19:17;1.56;85.99
13713;DHT22;6928;50.546;7.120;2023-02-16T00:21:46;1.06;87.30
13713;DHT22;6928;50.546;7.120;2023-02-16T00:24:13;1.02;89.38
13713;DHT22;6928;50.546;7.120;2023-02-16T00:26:41;1.56;87.59
13713;DHT22;6928;50.546;7.120;2023-02-16T00:29:13;1.38;88.74
13713;DHT22;6928;50.546;7.120;2023-02-16T00:31:40;1.32;87.93
13713;DHT22;6928;50.546;7.120;2023-02-16T00:34:27;1.42;87.40
13713;DHT22;6928;50.546;7.120;2023-02-16T00:36:59;1.22;87.71
13713;DHT22;6928;50.546;7.120;2023-02-16T00:39:26;1.26;87.56
13713;DHT22;6928;50.546;7.120;2023-02-16T00:41:55;1.43;87.17
13713;DHT22;6928;50.546;7.120;2023-02-16T00:44:30;1.22;87.46
13713;DHT22;6928;50.546;7.120;2023-02-16T00:47:01;1.22;87.78
13713;DHT22;6928;50.546;7.120;2023-02-16T00:49:28;1.19;87.43
13713;DHT22;6928;50.546;7.120;2023-02-16T00:51:56;1.35;87.29
13713;DHT22;6928;50.546;7.120;2023-02-16T00:54:23;1.32;87.58
13713;DHT22;6928;50.546;7.120;2023-02-16T00:56:50;0.80;88.32
13713;DHT22;6928;50.546;7.120;2023-02-16T00:59:19;0.67;89.57
13713;DHT22;6928;50.546;7.120;2023-02-16T01:01:48;1.25;88.50
13713;DHT22;6928;50.546;7.120;2023-02-16T01:04:19;1.11;87.19
13713;DHT22;6928;50.546;7.120;2023-02-16T01:06:46;0.99;87.34
13713;DHT22;6928;50.546;7.120;2023-02-16T01:09:32;1.02;86.96
13713;DHT22;6928;50.546;7.120;2023-02-16T01:12:18;1.06;87.09
13713;DHT22;6928;50.546;7.120;2023-02-16T01:14:50;0.85;87.54
13713;DHT22;6928;50.546;7.120;2023-02-16T01:17:17;0.95;88.20
13713;DHT22;6928;50.546;7.120;2023-02-16T01:19:44;1.13;87.70
13713;DHT22;6928;50.546;7.120;2023-02-16T01:22:11;0.73;88.06
13713;DHT22;6928;50.546;7.120;2023-02-16T01:24:39;1.03;87.98
13713;DHT22;6928;50.546;7.120;2023-02-16T01:27:09;0.64;88.04
13713;DHT22;6928;50.546;7.120;2023-02-16T01:29:36;0.74;89.50
13713;DHT22;6928;50.546;7.120;2023-02-16T01:32:03;0.82;88.07
13713;DHT22;6928;50.546;7.120;2023-02-16T01:34:29;0.74;88.21
13713;DHT22;6928;50.546;7.120;2023-02-16T01:36:56;0.70;88.06
13713;DHT22;6928;50.546;7.120;2023-02-16T01:39:23;0.58;87.71
13713;DHT22;6928;50.546;7.120;2023-02-16T01:42:01;0.42;88.44
13713;DHT22;6928;50.546;7.120;2023-02-16T01:44:32;0.65;87.78
13713;DHT22;6928;50.546;7.120;2023-02-16T01:47:06;0.88;87.36
13713;DHT22;6928;50.546;7.120;2023-02-16T01:49:35;0.78;87.01
13713;DHT22;6928;50.546;7.120;2023-02-16T01:52:10;0.78;86.94
13713;DHT22;6928;50.546;7.120;2023-02-16T01:54:43;0.87;86.93
13713;DHT22;6928;50.546;7.120;2023-02-16T01:57:26;0.68;86.77
13713;DHT22;6928;50.546;7.120;2023-02-16T02:00:28;0.91;86.39
13713;DHT22;6928;50.546;7.120;2023-02-16T02:02:55;0.60;86.59
13713;DHT22;6928;50.546;7.120;2023-02-16T02:05:45;0.77;87.04
13713;DHT22;6928;50.546;7.120;2023-02-16T02:08:19;0.94;86.21
13713;DHT22;6928;50.546;7.120;2023-02-16T02:10:59;0.71;86.34
13713;DHT22;6928;50.546;7.120;2023-02-16T02:13:35;0.80;86.43
13713;DHT22;6928;50.546;7.120;2023-02-16T02:16:05;0.61;86.58
13713;DHT22;6928;50.546;7.120;2023-02-16T02:18:32;0.54;86.65
13713;DHT22;6928;50.546;7.120;2023-02-16T02:21:27;0.32;86.66
13713;DHT22;6928;50.546;7.120;2023-02-16T02:24:46;0.43;86.77
13713;DHT22;6928;50.546;7.120;2023-02-16T02:27:22;0.43;87.05
13713;DHT22;6928;50.546;7.120;2023-02-16T02:30:16;0.28;87.09
13713;DHT22;6928;50.546;7.120;2023-02-16T02:33:01;0.03;87.60
13713;DHT22;6928;50.546;7.120;2023-02-16T02:35:42;0.50;86.80
13713;DHT22;6928;50.546;7.120;2023-02-16T02:38:20;0.34;86.55
13713;DHT22;6928;50.546;7.120;2023-02-16T02:40:58;0.30;86.69
13713;DHT22;6928;50.546;7.120;2023-02-16T02:43:34;0.13;88.84
13713;DHT22;6928;50.546;7.120;2023-02-16T02:46:07;0.18;87.52
13713;DHT22;6928;50.546;7.120;2023-02-16T02:48:36;0.21;87.06
13713;DHT22;6928;50.546;7.120;2023-02-16T02:51:10;0.30;86.70
13713;DHT22;6928;50.546;7.120;2023-02-16T02:54:00;0.28;86.56
13713;DHT22;6928;50.546;7.120;2023-02-16T02:56:56;0.28;86.55
13713;DHT22;6928;50.546;7.120;2023-02-16T02:59:49;0.28;86.50
13713;DHT22;6928;50.546;7.120;2023-02-16T03:02:35;0.23;86.40
13713;DHT22;6928;50.546;7.120;2023-02-16T03:05:04;0.12;86.39
13713;DHT22;6928;50.546;7.120;2023-02-16T03:07:33;0.13;86.41
13713;DHT22;6928;50.546;7.120;2023-02-16T03:10:16;0.09;86.29
13713;DHT22;6928;50.546;7.120;2023-02-16T03:13:13;0.01;86.41
13713;DHT22;6928;50.546;7.120;2023-02-16T03:15:43;0.03;86.53
13713;DHT22;6928;50.546;7.120;2023-02-16T03:18:12;0.05;86.58
13713;DHT22;6928;50.546;7.120;2023-02-16T03:20:58;-0.50;88.24
13713;DHT22;6928;50.546;7.120;2023-02-16T03:23:43;-0.46;88.24
13713;DHT22;6928;50.546;7.120;2023-02-16T03:26:29;0.01;87.31
13713;DHT22;6928;50.546;7.120;2023-02-16T03:29:14;0.01;86.43
13713;DHT22;6928;50.546;7.120;2023-02-16T03:31:45;-0.08;86.58
13713;DHT22;6928;50.546;7.120;2023-02-16T03:34:12;0.12;86.31
13713;DHT22;6928;50.546;7.120;2023-02-16T03:36:44;-0.04;86.05
13713;DHT22;6928;50.546;7.120;2023-02-16T03:39:12;0.03;86.26
13713;DHT22;6928;50.546;7.120;2023-02-16T03:41:42;-0.40;87.48
13713;DHT22;6928;50.546;7.120;2023-02-16T03:44:09;-0.08;87.01
13713;DHT22;6928;50.546;7.120;2023-02-16T03:46:36;-0.19;86.62
13713;DHT22;6928;50.546;7.120;2023-02-16T03:49:04;0.09;86.15
13713;DHT22;6928;50.546;7.120;2023-02-16T03:51:31;-0.05;86.08
13713;DHT22;6928;50.546;7.120;2023-02-16T03:53:58;-0.18;85.98
13713;DHT22;6928;50.546;7.120;2023-02-16T03:56:25;-0.37;86.65
13713;DHT22;6928;50.546;7.120;2023-02-16T03:58:51;-0.23;86.61
13713;DHT22;6928;50.546;7.120;2023-02-16T04:01:18;-0.28;86.64
13713;DHT22;6928;50.546;7.120;2023-02-16T04:03:45;-0.23;86.78
13713;DHT22;6928;50.546;7.120;2023-02-16T04:06:13;-0.15;86.39
13713;DHT22;6928;50.546;7.120;2023-02-16T04:08:40;-0.21;86.24
13713;DHT22;6928;50.546;7.120;2023-02-16T04:11:07;-0.47;87.12
13713;DHT22;6928;50.546;7.120;2023-02-16T04:13:47;-0.68;87.66
13713;DHT22;6928;50.546;7.120;2023-02-16T04:16:14;-0.74;87.70
13713;DHT22;6928;50.546;7.120;2023-02-16T04:18:41;-0.98;89.95
13713;DHT22;6928;50.546;7.120;2023-02-16T04:21:07;-0.68;89.71
13713;DHT22;6928;50.546;7.120;2023-02-16T04:23:35;-0.45;88.02
13713;DHT22;6928;50.546;7.120;2023-02-16T04:26:02;-0.45;87.37
13713;DHT22;6928;50.546;7.120;2023-02-16T04:28:29;-0.46;87.49
13713;DHT22;6928;50.546;7.120;2023-02-16T04:30:56;-0.45;86.92
13713;DHT22;6928;50.546;7.120;2023-02-16T04:33:22;-0.42;86.75
13713;DHT22;6928;50.546;7.120;2023-02-16T04:35:49;-0.47;86.30
13713;DHT22;6928;50.546;7.120;2023-02-16T04:38:16;-0.50;86.34
13713;DHT22;6928;50.546;7.120;2023-02-16T04:40:44;-0.54;86.58
13713;DHT22;6928;50.546;7.120;2023-02-16T04:43:11;-0.50;86.54
13713;DHT22;6928;50.546;7.120;2023-02-16T04:45:38;-0.52;86.19
13713;DHT22;6928;50.546;7.120;2023-02-16T04:48:05;-0.67;86.48
13713;DHT22;6928;50.546;7.120;2023-02-16T04:50:31;-0.74;87.07
13713;DHT22;6928;50.546;7.120;2023-02-16T04:52:58;-0.61;86.79
13713;DHT22;6928;50.546;7.120;2023-02-16T04:55:25;-0.84;86.83
13713;DHT22;6928;50.546;7.120;2023-02-16T04:57:53;-1.22;88.93
13713;DHT22;6928;50.546;7.120;2023-02-16T05:00:20;-0.70;88.57
13713;DHT22;6928;50.546;7.120;2023-02-16T05:02:47;-0.58;87.30
13713;DHT22;6928;50.546;7.120;2023-02-16T05:05:13;-0.71;86.93
13713;DHT22;6928;50.546;7.120;2023-02-16T05:07:40;-0.67;86.80
13713;DHT22;6928;50.546;7.120;2023-02-16T05:10:07;-0.63;86.59
13713;DHT22;6928;50.546;7.120;2023-02-16T05:12:34;-0.81;86.73
13713;DHT22;6928;50.546;7.120;2023-02-16T05:15:21;-0.70;86.70
13713;DHT22;6928;50.546;7.120;2023-02-16T05:17:47;-0.64;86.55
13713;DHT22;6928;50.546;7.120;2023-02-16T05:20:14;-0.68;86.80
13713;DHT22;6928;50.546;7.120;2023-02-16T05:22:41;-1.16;88.41
13713;DHT22;6928;50.546;7.120;2023-02-16T05:25:09;-0.78;87.92
13713;DHT22;6928;50.546;7.120;2023-02-16T05:27:36;-0.77;87.35
13713;DHT22;6928;50.546;7.120;2023-02-16T05:30:04;-0.74;86.77
13713;DHT22;6928;50.546;7.120;2023-02-16T05:32:32;-0.74;86.78
13713;DHT22;6928;50.546;7.120;2023-02-16T05:34:59;-0.92;86.96
13713;DHT22;6928;50.546;7.120;2023-02-16T05:37:26;-0.83;87.31
13713;DHT22;6928;50.546;7.120;2023-02-16T05:39:52;-0.76;87.22
13713;DHT22;6928;50.546;7.120;2023-02-16T05:42:19;-0.76;87.58
13713;DHT22;6928;50.546;7.120;2023-02-16T05:44:46;-0.58;87.46
13713;DHT22;6928;50.546;7.120;2023-02-16T05:47:13;-0.57;87.50
13713;DHT22;6928;50.546;7.120;2023-02-16T05:49:41;-0.49;87.90
13713;DHT22;6928;50.546;7.120;2023-02-16T05:52:07;-0.56;87.90
13713;DHT22;6928;50.546;7.120;2023-02-16T05:54:34;-0.50;88.25
13713;DHT22;6928;50.546;7.120;2023-02-16T05:57:01;-0.50;88.44
13713;DHT22;6928;50.546;7.120;2023-02-16T05:59:28;-0.49;89.48
13713;DHT22;6928;50.546;7.120;2023-02-16T06:01:54;-0.52;89.93
13713;DHT22;6928;50.546;7.120;2023-02-16T06:04:21;-0.35;90.02
13713;DHT22;6928;50.546;7.120;2023-02-16T06:06:49;-0.60;89.92
13713;DHT22;6928;50.546;7.120;2023-02-16T06:09:16;-0.54;90.69
13713;DHT22;6928;50.546;7.120;2023-02-16T06:11:43;-0.30;90.49
13713;DHT22;6928;50.546;7.120;2023-02-16T06:14:12;-0.37;90.04
13713;DHT22;6928;50.546;7.120;2023-02-16T06:16:42;-0.43;90.23
13713;DHT22;6928;50.546;7.120;2023-02-16T06:19:09;-0.42;90.41
13713;DHT22;6928;50.546;7.120;2023-02-16T06:21:37;-0.33;90.77
13713;DHT22;6928;50.546;7.120;2023-02-16T06:24:08;-0.45;91.01
13713;DHT22;6928;50.546;7.120;2023-02-16T06:26:35;-0.42;92.26
13713;DHT22;6928;50.546;7.120;2023-02-16T06:29:03;-0.39;92.45
13713;DHT22;6928;50.546;7.120;2023-02-16T06:31:30;-0.36;92.20
13713;DHT22;6928;50.546;7.120;2023-02-16T06:33:57;-0.35;91.60
13713;DHT22;6928;50.546;7.120;2023-02-16T06:36:24;-0.39;91.40
13713;DHT22;6928;50.546;7.120;2023-02-16T06:38:51;-0.40;91.42
13713;DHT22;6928;50.546;7.120;2023-02-16T06:41:19;-0.35;91.41
13713;DHT22;6928;50.546;7.120;2023-02-16T06:43:57;-0.29;91.45
13713;DHT22;6928;50.546;7.120;2023-02-16T06:46:24;-0.33;91.72
13713;DHT22;6928;50.546;7.120;2023-02-16T06:48:51;-0.29;92.03
13713;DHT22;6928;50.546;7.120;2023-02-16T06:51:18;-0.33;92.18
13713;DHT22;6928;50.546;7.120;2023-02-16T06:53:45;-0.28;92.39
13713;DHT22;6928;50.546;7.120;2023-02-16T06:56:12;-0.30;92.79
13713;DHT22;6928;50.546;7.120;2023-02-16T06:58:41;-0.22;92.97
13713;DHT22;6928;50.546;7.120;2023-02-16T07:01:08;-0.15;92.90
13713;DHT22;6928;50.546;7.120;2023-02-16T07:03:34;-0.23;92.81
13713;DHT22;6928;50.546;7.120;2023-02-16T07:06:01;-0.23;92.98
13713;DHT22;6928;50.546;7.120;2023-02-16T07:08:28;-0.21;92.93
13713;DHT22;6928;50.546;7.120;2023-02-16T07:10:55;-0.12;93.00
13713;DHT22;6928;50.546;7.120;2023-02-16T07:13:22;-0.22;92.92
13713;DHT22;6928;50.546;7.120;2023-02-16T07:15:50;-0.22;93.02
13713;DHT22;6928;50.546;7.120;2023-02-16T07:18:17;-0.19;93.13
13713;DHT22;6928;50.546;7.120;2023-02-16T07:20:44;-0.23;93.20
13713;DHT22;6928;50.546;7.120;2023-02-16T07:23:12;-0.21;93.51
13713;DHT22;6928;50.546;7.120;2023-02-16T07:25:39;-0.14;93.47
13713;DHT22;6928;50.546;7.120;2023-02-16T07:28:06;-0.16;93.77
13713;DHT22;6928;50.546;7.120;2023-02-16T07:30:32;-0.08;93.60
13713;DHT22;6928;50.546;7.120;2023-02-16T07:33:01;-0.08;93.64
13713;DHT22;6928;50.546;7.120;2023-02-16T07:35:27;-0.09;93.51
13713;DHT22;6928;50.546;7.120;2023-02-16T07:37:54;0.11;93.80
13713;DHT22;6928;50.546;7.120;2023-02-16T07:40:22;0.08;93.41
13713;DHT22;6928;50.546;7.120;2023-02-16T07:42:51;0.12;93.47
13713;DHT22;6928;50.546;7.120;2023-02-16T07:45:18;0.22;93.32
13713;DHT22;6928;50.546;7.120;2023-02-16T07:47:45;-0.09;93.53
13713;DHT22;6928;50.546;7.120;2023-02-16T07:50:13;-0.04;94.06
13713;DHT22;6928;50.546;7.120;2023-02-16T07:52:40;0.09;94.03
13713;DHT22;6928;50.546;7.120;2023-02-16T07:55:09;0.32;93.53
13713;DHT22;6928;50.546;7.120;2023-02-16T07:57:37;0.32;93.16
13713;DHT22;6928;50.546;7.120;2023-02-16T08:00:06;0.42;92.84
13713;DHT22;6928;50.546;7.120;2023-02-16T08:02:33;0.40;92.69
13713;DHT22;6928;50.546;7.120;2023-02-16T08:05:00;0.34;93.09
13713;DHT22;6928;50.546;7.120;2023-02-16T08:07:29;0.29;93.64
13713;DHT22;6928;50.546;7.120;2023-02-16T08:09:55;0.32;93.13
13713;DHT22;6928;50.546;7.120;2023-02-16T08:12:22;0.37;93.85
13713;DHT22;6928;50.546;7.120;2023-02-16T08:14:49;0.40;93.78
13713;DHT22;6928;50.546;7.120;2023-02-16T08:17:16;0.53;93.53
13713;DHT22;6928;50.546;7.120;2023-02-16T08:19:43;0.80;92.90
13713;DHT22;6928;50.546;7.120;2023-02-16T08:22:09;0.67;92.64
13713;DHT22;6928;50.546;7.120;2023-02-16T08:24:38;0.67;92.50
13713;DHT22;6928;50.546;7.120;2023-02-16T08:27:05;0.64;92.47
13713;DHT22;6928;50.546;7.120;2023-02-16T08:29:32;0.78;92.48
13713;DHT22;6928;50.546;7.120;2023-02-16T08:31:59;0.84;92.25
13713;DHT22;6928;50.546;7.120;2023-02-16T08:34:25;0.96;91.95
13713;DHT22;6928;50.546;7.120;2023-02-16T08:36:54;1.08;91.99
13713;DHT22;6928;50.546;7.120;2023-02-16T08:39:24;1.08;91.46
13713;DHT22;6928;50.546;7.120;2023-02-16T08:41:53;1.11;91.66
13713;DHT22;6928;50.546;7.120;2023-02-16T08:44:22;1.02;91.61
13713;DHT22;6928;50.546;7.120;2023-02-16T08:46:52;1.13;91.56
13713;DHT22;6928;50.546;7.120;2023-02-16T08:49:21;1.11;91.36
13713;DHT22;6928;50.546;7.120;2023-02-16T08:51:50;1.08;91.98
13713;DHT22;6928;50.546;7.120;2023-02-16T08:54:21;1.18;91.59
13713;DHT22;6928;50.546;7.120;2023-02-16T08:56:48;1.19;91.39
13713;DHT22;6928;50.546;7.120;2023-02-16T08:59:19;1.29;91.36
13713;DHT22;6928;50.546;7.120;2023-02-16T09:01:46;1.31;91.17
13713;DHT22;6928;50.546;7.120;2023-02-16T09:04:15;1.42;91.18
13713;DHT22;6928;50.546;7.120;2023-02-16T09:06:45;1.38;91.55
13713;DHT22;6928;50.546;7.120;2023-02-16T09:09:13;1.43;91.17
13713;DHT22;6928;50.546;7.120;2023-02-16T09:11:40;1.46;91.00
13713;DHT22;6928;50.546;7.120;2023-02-16T09:14:06;1.43;91.14
13713;DHT22;6928;50.546;7.120;2023-02-16T09:16:35;1.46;91.02
13713;DHT22;6928;50.546;7.120;2023-02-16T09:19:11;1.52;90.94
13713;DHT22;6928;50.546;7.120;2023-02-16T09:21:39;1.46;91.06
13713;DHT22;6928;50.546;7.120;2023-02-16T09:24:06;1.57;90.98
13713;DHT22;6928;50.546;7.120;2023-02-16T09:26:35;1.73;90.86
13713;DHT22;6928;50.546;7.120;2023-02-16T09:29:03;1.70;90.81
13713;DHT22;6928;50.546;7.120;2023-02-16T09:31:33;1.77;90.49
13713;DHT22;6928;50.546;7.120;2023-02-16T09:34:03;1.92;90.22
13713;DHT22;6928;50.546;7.120;2023-02-16T09:36:31;1.91;90.37
13713;DHT22;6928;50.546;7.120;2023-02-16T09:38:59;1.98;90.36
13713;DHT22;6928;50.546;7.120;2023-02-16T09:41:44;2.12;90.21
13713;DHT22;6928;50.546;7.120;2023-02-16T09:44:21;2.08;90.51
13713;DHT22;6928;50.546;7.120;2023-02-16T09:46:51;2.11;90.06
13713;DHT22;6928;50.546;7.120;2023-02-16T09:49:27;2.19;90.05
13713;DHT22;6928;50.546;7.120;2023-02-16T09:52:01;2.41;89.86
13713;DHT22;6928;50.546;7.120;2023-02-16T09:54:38;2.66;89.41
13713;DHT22;6928;50.546;7.120;2023-02-16T09:57:15;2.80;89.23
13713;DHT22;6928;50.546;7.120;2023-02-16T09:59:52;2.81;88.85
13713;DHT22;6928;50.546;7.120;2023-02-16T10:02:35;2.83;88.73
13713;DHT22;6928;50.546;7.120;2023-02-16T10:05:24;3.19;88.12
13713;DHT22;6928;50.546;7.120;2023-02-16T10:08:04;3.59;87.53
13713;DHT22;6928;50.546;7.120;2023-02-16T10:10:42;3.49;87.46
13713;DHT22;6928;50.546;7.120;2023-02-16T10:13:21;3.91;87.28
13713;DHT22;6928;50.546;7.120;2023-02-16T10:15:50;3.83;86.70
13713;DHT22;6928;50.546;7.120;2023-02-16T10:18:25;4.29;86.88
13713;DHT22;6928;50.546;7.120;2023-02-16T10:20:59;4.39;85.86
13713;DHT22;6928;50.546;7.120;2023-02-16T10:23:40;4.89;85.05
13713;DHT22;6928;50.546;7.120;2023-02-16T10:26:15;4.46;85.41
13713;DHT22;6928;50.546;7.120;2023-02-16T10:28:46;4.70;85.45
13713;DHT22;6928;50.546;7.120;2023-02-16T10:31:21;4.63;85.64
13713;DHT22;6928;50.546;7.120;2023-02-16T10:34:02;4.75;85.62
13713;DHT22;6928;50.546;7.120;2023-02-16T10:36:59;4.91;85.34
13713;DHT22;6928;50.546;7.120;2023-02-16T10:39:36;4.99;85.43
13713;DHT22;6928;50.546;7.120;2023-02-16T10:42:16;4.99;85.44
13713;DHT22;6928;50.546;7.120;2023-02-16T10:44:50;5.12;84.99
13713;DHT22;6928;50.546;7.120;2023-02-16T10:47:30;5.20;85.11
13713;DHT22;6928;50.546;7.120;2023-02-16T10:49:58;5.34;85.19
13713;DHT22;6928;50.546;7.120;2023-02-16T10:52:29;5.21;84.87
13713;DHT22;6928;50.546;7.120;2023-02-16T10:54:58;5.28;84.60
13713;DHT22;6928;50.546;7.120;2023-02-16T10:57:27;5.27;84.77
13713;DHT22;6928;50.546;7.120;2023-02-16T10:59:58;5.34;84.94
13713;DHT22;6928;50.546;7.120;2023-02-16T11:02:27;5.35;84.84
13713;DHT22;6928;50.546;7.120;2023-02-16T11:04:57;5.31;84.79
13713;DHT22;6928;50.546;7.120;2023-02-16T11:07:28;5.51;84.92
13713;DHT22;6928;50.546;7.120;2023-02-16T11:09:59;5.63;84.59
13713;DHT22;6928;50.546;7.120;2023-02-16T11:12:30;5.65;85.22
13713;DHT22;6928;50.546;7.120;2023-02-16T11:15:02;5.73;84.97
13713;DHT22;6928;50.546;7.120;2023-02-16T11:17:31;5.78;84.27
13713;DHT22;6928;50.546;7.120;2023-02-16T11:20:26;5.99;84.50
13713;DHT22;6928;50.546;7.120;2023-02-16T11:23:12;6.13;83.73
13713;DHT22;6928;50.546;7.120;2023-02-16T11:25:40;6.03;83.95
13713;DHT22;6928;50.546;7.120;2023-02-16T11:28:07;6.06;84.06
13713;DHT22;6928;50.546;7.120;2023-02-16T11:30:39;6.30;83.43
13713;DHT22;6928;50.546;7.120;2023-02-16T11:33:21;6.40;83.72
13713;DHT22;6928;50.546;7.120;2023-02-16T11:35:48;6.52;83.14
13713;DHT22;6928;50.546;7.120;2023-02-16T11:38:31;6.48;83.51
13713;DHT22;6928;50.546;7.120;2023-02-16T11:41:02;6.78;82.73
13713;DHT22;6928;50.546;7.120;2023-02-16T11:43:33;6.71;82.94
13713;DHT22;6928;50.546;7.120;2023-02-16T11:46:04;6.80;83.58
13713;DHT22;6928;50.546;7.120;2023-02-16T11:48:33;6.93;84.38
13713;DHT22;6928;50.546;7.120;2023-02-16T11:51:03;6.93;84.83
13713;DHT22;6928;50.546;7.120;2023-02-16T11:53:34;7.09;83.43
13713;DHT22;6928;50.546;7.120;2023-02-16T11:56:20;7.03;84.67
13713;DHT22;6928;50.546;7.120;2023-02-16T11:59:11;7.30;83.80
13713;DHT22;6928;50.546;7.120;2023-02-16T12:01:58;7.14;84.35
13713;DHT22;6928;50.546;7.120;2023-02-16T12:04:41;7.20;84.37
13713;DHT22;6928;50.546;7.120;2023-02-16T12:07:22;7.52;84.09
13713;DHT22;6928;50.546;7.120;2023-02-16T12:10:03;7.52;83.74
13713;DHT22;6928;50.546;7.120;2023-02-16T12:12:35;7.66;82.65
13713;DHT22;6928;50.546;7.120;2023-02-16T12:15:18;7.59;83.61
13713;DHT22;6928;50.546;7.120;2023-02-16T12:18:00;7.62;83.99
13713;DHT22;6928;50.546;7.120;2023-02-16T12:20:40;7.82;83.85
13713;DHT22;6928;50.546;7.120;2023-02-16T12:23:27;8.05;83.27
13713;DHT22;6928;50.546;7.120;2023-02-16T12:26:23;8.10;83.10
13713;DHT22;6928;50.546;7.120;2023-02-16T12:28:59;8.12;83.35
13713;DHT22;6928;50.546;7.120;2023-02-16T12:31:33;8.05;83.12
13713;DHT22;6928;50.546;7.120;2023-02-16T12:34:15;8.07;83.54
13713;DHT22;6928;50.546;7.120;2023-02-16T12:36:54;8.02;83.32
13713;DHT22;6928;50.546;7.120;2023-02-16T12:39:29;8.19;82.79
13713;DHT22;6928;50.546;7.120;2023-02-16T12:42:34;8.19;82.69
13713;DHT22;6928;50.546;7.120;2023-02-16T12:45:09;8.23;82.74
13713;DHT22;6928;50.546;7.120;2023-02-16T12:47:45;8.31;82.60
13713;DHT22;6928;50.546;7.120;2023-02-16T12:50:18;8.38;82.00
13713;DHT22;6928;50.546;7.120;2023-02-16T12:52:52;8.17;82.73
13713;DHT22;6928;50.546;7.120;2023-02-16T12:55:25;8.27;82.93
13713;DHT22;6928;50.546;7.120;2023-02-16T12:58:01;8.37;81.71
13713;DHT22;6928;50.546;7.120;2023-02-16T13:00:38;8.34;81.55
13713;DHT22;6928;50.546;7.120;2023-02-16T13:03:22;8.31;82.18
13713;DHT22;6928;50.546;7.120;2023-02-16T13:05:59;8.38;82.16
13713;DHT22;6928;50.546;7.120;2023-02-16T13:08:35;8.38;81.89
13713;DHT22;6928;50.546;7.120;2023-02-16T13:11:12;8.36;81.59
13713;DHT22;6928;50.546;7.120;2023-02-16T13:13:47;8.26;82.57
13713;DHT22;6928;50.546;7.120;2023-02-16T13:16:18;8.27;82.91
13713;DHT22;6928;50.546;7.120;2023-02-16T13:18:50;8.31;83.49
13713;DHT22;6928;50.546;7.120;2023-02-16T13:21:38;8.31;83.15
13713;DHT22;6928;50.546;7.120;2023-02-16T13:24:14;8.20;84.03
13713;DHT22;6928;50.546;7.120;2023-02-16T13:26:55;8.20;84.17
13713;DHT22;6928;50.546;7.120;2023-02-16T13:29:57;8.30;84.10
13713;DHT22;6928;50.546;7.120;2023-02-16T13:33:03;8.23;84.79
13713;DHT22;6928;50.546;7.120;2023-02-16T13:35:59;8.21;84.84
13713;DHT22;6928;50.546;7.120;2023-02-16T13:38:56;8.17;85.42
13713;DHT22;6928;50.546;7.120;2023-02-16T13:41:41;8.16;85.80
13713;DHT22;6928;50.546;7.120;2023-02-16T13:44:13;8.16;86.57
13713;DHT22;6928;50.546;7.120;2023-02-16T13:46:44;8.17;85.48
13713;DHT22;6928;50.546;7.120;2023-02-16T13:49:29;8.27;85.80
13713;DHT22;6928;50.546;7.120;2023-02-16T13:51:58;8.21;86.05
13713;DHT22;6928;50.546;7.120;2023-02-16T13:54:29;8.21;86.22
13713;DHT22;6928;50.546;7.120;2023-02-16T13:56:57;8.29;86.22
13713;DHT22;6928;50.546;7.120;2023-02-16T13:59:59;8.27;85.98
13713;DHT22;6928;50.546;7.120;2023-02-16T14:02:54;8.31;85.82
13713;DHT22;6928;50.546;7.120;2023-02-16T14:05:32;8.45;85.83
13713;DHT22;6928;50.546;7.120;2023-02-16T14:08:23;8.40;85.54
13713;DHT22;6928;50.546;7.120;2023-02-16T14:11:09;8.41;85.40
13713;DHT22;6928;50.546;7.120;2023-02-16T14:13:46;8.41;85.65
13713;DHT22;6928;50.546;7.120;2023-02-16T14:16:30;8.41;85.82
13713;DHT22;6928;50.546;7.120;2023-02-16T14:19:04;8.36;86.06
13713;DHT22;6928;50.546;7.120;2023-02-16T14:21:38;8.41;85.94
13713;DHT22;6928;50.546;7.120;2023-02-16T14:24:10;8.42;85.54
13713;DHT22;6928;50.546;7.120;2023-02-16T14:26:54;8.50;85.50
13713;DHT22;6928;50.546;7.120;2023-02-16T14:29:27;8.57;84.78
13713;DHT22;6928;50.546;7.120;2023-02-16T14:32:00;8.65;85.15
13713;DHT22;6928;50.546;7.120;2023-02-16T14:34:36;8.71;85.12
13713;DHT22;6928;50.546;7.120;2023-02-16T14:37:35;8.69;84.73
13713;DHT22;6928;50.546;7.120;2023-02-16T14:40:39;8.73;85.00
13713;DHT22;6928;50.546;7.120;2023-02-16T14:43:23;8.81;84.95
13713;DHT22;6928;50.546;7.120;2023-02-16T14:58:37;9.15;83.08
13713;DHT22;6928;50.546;7.120;2023-02-16T15:01:10;9.15;83.29
13713;DHT22;6928;50.546;7.120;2023-02-16T15:03:41;9.12;83.84
13713;DHT22;6928;50.546;7.120;2023-02-16T15:06:19;9.10;83.90
13713;DHT22;6928;50.546;7.120;2023-02-16T15:08:53;9.30;83.04
13713;DHT22;6928;50.546;7.120;2023-02-16T15:11:32;9.97;83.31
13713;DHT22;6928;50.546;7.120;2023-02-16T15:14:08;9.75;78.79
13713;DHT22;6928;50.546;7.120;2023-02-16T15:16:39;9.89;78.53
13713;DHT22;6928;50.546;7.120;2023-02-16T15:19:10;10.18;75.43
13713;DHT22;6928;50.546;7.120;2023-02-16T15:21:40;10.23;75.18
13713;DHT22;6928;50.546;7.120;2023-02-16T15:24:21;10.25;74.88
13713;DHT22;6928;50.546;7.120;2023-02-16T15:26:54;10.29;74.62
13713;DHT22;6928;50.546;7.120;2023-02-16T15:29:27;10.44;73.54
13713;DHT22;6928;50.546;7.120;2023-02-16T15:31:55;10.44;73.71
13713;DHT22;6928;50.546;7.120;2023-02-16T15:34:30;10.39;74.54
13713;DHT22;6928;50.546;7.120;2023-02-16T15:36:59;10.50;73.31
13713;DHT22;6928;50.546;7.120;2023-02-16T15:39:31;10.55;73.41
13713;DHT22;6928;50.546;7.120;2023-02-16T15:42:16;10.57;73.37
13713;DHT22;6928;50.546;7.120;2023-02-16T15:44:45;10.50;73.89
13713;DHT22;6928;50.546;7.120;2023-02-16T15:47:14;10.49;73.83
13713;DHT22;6928;50.546;7.120;2023-02-16T15:49:42;10.53;73.64
13713;DHT22;6928;50.546;7.120;2023-02-16T15:52:12;10.50;73.98
13713;DHT22;6928;50.546;7.120;2023-02-16T15:54:42;10.46;74.00
13713;DHT22;6928;50.546;7.120;2023-02-16T15:57:17;10.53;74.16
13713;DHT22;6928;50.546;7.120;2023-02-16T15:59:48;10.61;72.88
13713;DHT22;6928;50.546;7.120;2023-02-16T16:02:17;10.55;73.17
13713;DHT22;6928;50.546;7.120;2023-02-16T16:04:48;10.53;73.46
13713;DHT22;6928;50.546;7.120;2023-02-16T16:07:24;10.53;73.38
13713;DHT22;6928;50.546;7.120;2023-02-16T16:09:54;10.56;73.37
13713;DHT22;6928;50.546;7.120;2023-02-16T16:12:23;10.39;74.22
13713;DHT22;6928;50.546;7.120;2023-02-16T16:14:54;10.51;73.55
13713;DHT22;6928;50.546;7.120;2023-02-16T16:17:27;10.59;73.16
13713;DHT22;6928;50.546;7.120;2023-02-16T16:19:56;10.60;72.78
13713;DHT22;6928;50.546;7.120;2023-02-16T16:22:34;10.44;73.66
13713;DHT22;6928;50.546;7.120;2023-02-16T16:25:36;10.47;73.59
13713;DHT22;6928;50.546;7.120;2023-02-16T16:28:06;10.36;74.13
13713;DHT22;6928;50.546;7.120;2023-02-16T16:30:34;10.36;73.78
13713;DHT22;6928;50.546;7.120;2023-02-16T16:33:04;10.37;73.51
13713;DHT22;6928;50.546;7.120;2023-02-16T16:35:37;10.71;73.67
13713;DHT22;6928;50.546;7.120;2023-02-16T16:38:16;10.88;73.47
13713;DHT22;6928;50.546;7.120;2023-02-16T16:40:50;10.61;72.87
13713;DHT22;6928;50.546;7.120;2023-02-16T16:43:24;10.67;72.40
13713;DHT22;6928;50.546;7.120;2023-02-16T16:45:56;10.92;73.81
13713;DHT22;6928;50.546;7.120;2023-02-16T16:48:26;10.73;72.48